• Join FlightAware (Why Join?)
  • Login
  • US Flag 
05:00PM EDT


 

Airport Tracker/Info


-or-


 

Live Flight TrackerFlight Track Log ✈ EJA583 ✈ 11-Sep-2013 ✈ KJAC - KSAN

Flight Track Log - Related Links

Times and Time Zones

All times are in EDT time to prevent confusion due to time zone crossing. See the EJA583 flight status page for this flight to view local times or setup timezone preferences in your user account.

Time Position Orientation Groundspeed Altitude Reporting Facility
EDT Latitude Longitude Course Direction KTS MPH feet Rate Location/Type
03:40PM 43.6425 -110.7214 200° South 234 269 7,400  Level Salt Lake Center
03:41PM 43.7108 -110.6611 33° Northeast 262 302 10,300 2,580 Climbing Salt Lake Center
03:43PM 43.7714 -110.5953 38° Northeast 280 322 12,800 2,460 Climbing Salt Lake Center
03:44PM 43.7353 -110.5036 119° Southeast 289 333 15,500 2,460 Climbing Salt Lake Center
03:45PM 43.0439 -111.1312 195° South  Level Estimated
03:45PM 43.7056 -110.4033 112° Southeast 282 325 18,000  Level Salt Lake Center
03:46PM 42.9499 -111.1961 200° South  Level Estimated
03:46PM 43.6453 -110.3153 133° Southeast 325 374 20,300  Level Salt Lake Center
03:47PM 43.5592 -110.3144 180° South 351 404 22,400 1,800 Climbing Salt Lake Center
03:48PM 43.4681 -110.3622 201° Southwest 347 399 24,100 1,560 Climbing Salt Lake Center
03:49PM 43.3650 -110.4158 201° Southwest 355 409 25,700 1,500 Climbing Salt Lake Center
03:50PM 43.2744 -110.4628 201° Southwest 362 417 27,200 1,440 Climbing Salt Lake Center
03:51PM 43.1736 -110.5192 202° Southwest 366 421 28,700 1,380 Climbing Salt Lake Center
03:52PM 43.0689 -110.5719 200° South 361 415 30,100 1,200 Climbing Salt Lake Center
03:53PM 42.9778 -110.6169 200° South 362 417 31,200 960 Climbing Salt Lake Center
03:54PM 42.8867 -110.6639 201° Southwest 365 420 32,200 960 Climbing Salt Lake Center
03:55PM 42.7758 -110.7206 201° Southwest 375 432 33,300 1,080 Climbing Salt Lake Center
03:56PM 42.6772 -110.7706 200° South 380 437 34,500 1,260 Climbing Salt Lake Center
03:57PM 42.5661 -110.8264 200° South 382 440 36,000 1,440 Climbing Salt Lake Center
03:58PM 42.4722 -110.8744 201° Southwest 377 434 37,500 1,500 Climbing Salt Lake Center
03:59PM 42.3678 -110.9272 200° South 363 418 39,100 1,200 Climbing Salt Lake Center
04:00PM 42.2786 -110.9719 200° South 357 411 40,000 420 Climbing Salt Lake Center
04:01PM 42.1819 -111.0186 200° South 367 422 40,000  Level Salt Lake Center
04:02PM 42.0778 -111.0717 201° Southwest 394 453 40,000  Level Salt Lake Center
04:03PM 41.9719 -111.1242 200° South 404 465 40,000  Level Salt Lake Center
04:04PM 41.8669 -111.1758 200° South 401 461 40,000  Level Salt Lake Center
04:05PM 41.7428 -111.2369 200° South 398 458 40,000  Level Salt Lake Center
04:06PM 41.6392 -111.2883 200° South 398 458 40,000  Level Salt Lake Center
04:07PM 41.5344 -111.3381 200° South 397 457 40,000  Level Salt Lake Center
04:08PM 41.4311 -111.3897 201° Southwest 396 456 40,000  Level Salt Lake Center
04:09PM 41.3267 -111.4394 200° South 398 458 40,000  Level Salt Lake Center
04:10PM 41.2233 -111.4906 200° South 397 457 40,000  Level Salt Lake Center
04:11PM 41.1189 -111.5400 200° South 396 456 40,000  Level Salt Lake Center
04:12PM 40.9925 -111.6000 200° South 396 456 40,000  Level Salt Lake Center
04:13PM 40.8861 -111.6506 200° South 398 458 40,000  Level Salt Lake Center
04:14PM 40.7811 -111.7003 200° South 397 457 40,000  Level Salt Lake Center
04:16PM 40.6742 -111.7406 196° South 395 455 40,000  Level Salt Lake Center
04:17PM 40.5667 -111.7611 188° South 390 449 40,000  Level Salt Lake Center
04:18PM 40.4578 -111.7825 189° South 392 451 40,000  Level Salt Lake Center
04:19PM 40.3494 -111.8042 189° South 390 449 40,000  Level Salt Lake Center
04:20PM 40.2378 -111.8214 187° South 401 461 40,000  Level Salt Lake Center
04:21PM 40.1053 -111.8483 189° South 402 463 40,000  Level Salt Lake Center
04:22PM 39.9967 -111.8692 188° South 395 455 40,000  Level Salt Lake Center
04:23PM 39.8872 -111.8886 188° South 397 457 40,000  Level Salt Lake Center
04:24PM 39.7769 -111.9094 188° South 400 460 40,000  Level Salt Lake Center
04:25PM 39.6678 -111.9275 187° South 396 456 40,000  Level Salt Lake Center
04:26PM 39.5583 -111.9475 188° South 397 457 40,000  Level Salt Lake Center
04:27PM 39.4278 -111.9706 188° South 395 455 40,000  Level Salt Lake Center
04:28PM 39.3197 -111.9906 188° South 391 450 40,000  Level Salt Lake Center
04:29PM 39.2297 -112.0828 218° Southwest 397 457 40,000  Level Salt Lake Center
04:30PM 39.1428 -112.1767 220° Southwest 406 467 40,000  Level Salt Lake Center
04:31PM 39.0558 -112.2722 220° Southwest 410 472 40,000  Level Salt Lake Center
04:32PM 38.9672 -112.3656 219° Southwest 411 473 40,000  Level Salt Lake Center
04:33PM 38.8800 -112.4606 220° Southwest 412 474 40,000  Level Salt Lake Center
04:34PM 38.7922 -112.5556 220° Southwest 414 476 40,000  Level Salt Lake Center
04:35PM 38.6864 -112.6678 220° Southwest 413 475 40,000  Level Salt Lake Center
04:36PM 38.5992 -112.7617 220° Southwest 411 473 40,000  Level Salt Lake Center
04:37PM 38.5142 -112.8517 220° Southwest 401 461 40,000  Level Salt Lake Center
04:38PM 38.4292 -112.9411 220° Southwest 398 458 40,000  Level Salt Lake Center
04:39PM 38.3428 -113.0286 218° Southwest 398 458 40,000  Level Salt Lake Center
04:40PM 38.2514 -113.1033 213° Southwest 395 455 40,000  Level Salt Lake Center
04:41PM 38.1425 -113.1917 213° Southwest 390 449 40,000  Level Salt Lake Center
04:42PM 38.0519 -113.2653 213° Southwest 389 448 40,000  Level Salt Lake Center
04:43PM 37.9608 -113.3378 212° Southwest 390 449 40,000  Level Salt Lake Center
04:44PM 37.8700 -113.4106 212° Southwest 389 448 40,000  Level Salt Lake Center
04:45PM 37.7800 -113.4831 212° Southwest 388 447 40,000  Level Salt Lake Center
04:46PM 37.6706 -113.5700 212° Southwest 389 448 40,000  Level Salt Lake Center
04:47PM 37.5794 -113.6406 212° Southwest 388 447 40,000  Level Salt Lake Center
04:49PM 37.4892 -113.7119 212° Southwest 386 444 40,000  Level Salt Lake Center
04:50PM 37.3983 -113.7828 212° Southwest 386 444 40,000  Level Salt Lake Center
04:51PM 37.3094 -113.8539 212° Southwest 384 442 40,000  Level Salt Lake Center
04:52PM 37.2189 -113.9236 212° Southwest 382 440 40,000  Level Salt Lake Center
04:53PM 37.1100 -114.0092 212° Southwest 385 443 40,000  Level Salt Lake Center
04:54PM 37.0181 -114.0800 212° Southwest 387 445 40,000  Level Salt Lake Center
04:55PM 36.9258 -114.1517 212° Southwest 390 449 40,000  Level Salt Lake Center
04:56PM 36.8322 -114.2214 211° Southwest 391 450 40,000  Level Salt Lake Center
04:57PM 36.6903 -114.3314 212° Southwest 391 450 40,000  Level Los Angeles Center
04:58PM 36.5964 -114.4028 211° Southwest 393 452 40,000  Level Los Angeles Center
04:59PM 36.4981 -114.4664 207° Southwest 396 456 40,000  Level Los Angeles Center
05:00PM 36.3978 -114.5231 204° Southwest 393 452 40,000  Level Los Angeles Center
05:01PM 36.2969 -114.5803 205° Southwest 396 456 40,000  Level Los Angeles Center
05:02PM 36.1758 -114.6475 204° Southwest 397 457 40,000  Level Los Angeles Center
05:03PM 36.0756 -114.7039 204° Southwest 395 455 40,000  Level Los Angeles Center
05:04PM 35.9733 -114.7603 204° Southwest 398 458 40,000  Level Los Angeles Center
05:05PM 35.8711 -114.8186 205° Southwest 401 461 40,000  Level Los Angeles Center
05:07PM 35.7683 -114.8747 204° Southwest 400 460 40,000 -420 Level Los Angeles Center
05:08PM 35.6647 -114.9322 204° Southwest 404 465 39,200 -1,140 Descending Los Angeles Center
05:09PM 35.5628 -114.9889 204° Southwest 401 461 37,700 -1,620 Descending Los Angeles Center
05:10PM 35.4381 -115.0508 202° Southwest 403 464 35,900 -1,680 Descending Los Angeles Center
05:11PM 35.3314 -115.1022 201° Southwest 409 471 34,300 -1,440 Descending Los Angeles Center
05:12PM 35.2231 -115.1522 201° Southwest 413 475 33,000 -1,380 Descending Los Angeles Center
05:13PM 35.1119 -115.2050 201° Southwest 421 484 31,500 -1,440 Descending Los Angeles Center
05:14PM 35.0044 -115.2550 201° Southwest 433 498 30,100 -1,440 Descending Los Angeles Center
05:15PM 34.8797 -115.3144 201° Southwest 447 514 28,600 -1,320 Descending Los Angeles Center
05:16PM 34.7433 -115.3778 201° Southwest 438 504 27,400 -840 Descending Los Angeles Center
05:17PM 34.6472 -115.4222 201° Southwest 435 501 26,900 -240 Descending Los Angeles Center
05:18PM 34.5125 -115.4850 201° Southwest 434 499 26,900  Level Los Angeles Center
05:19PM 34.4000 -115.5375 201° Southwest 434 499 26,900  Level Los Angeles Center
05:20PM 34.2875 -115.5881 200° South 432 497 26,900  Level Los Angeles Center
05:21PM 34.1750 -115.6394 201° Southwest 432 497 26,900  Level Los Angeles Center
05:22PM 34.0639 -115.6928 202° Southwest 431 496 26,900  Level Los Angeles Center
05:23PM 33.9514 -115.7439 201° Southwest 432 497 26,900  Level Los Angeles Center
05:24PM 33.8175 -115.8067 201° Southwest 430 495 26,900 -660 Level Los Angeles Center
05:25PM 33.7031 -115.8583 201° Southwest 436 502 25,600 -1,380 Descending Los Angeles Center
05:26PM 33.5908 -115.9081 200° South 434 499 24,100 -840 Descending Los Angeles Center
05:27PM 33.4889 -115.9753 209° Southwest 419 482 23,900 -480 Descending Los Angeles Center
05:28PM 33.4017 -116.0603 219° Southwest 407 468 23,200 -1,800 Descending Los Angeles Center
05:29PM 33.3003 -116.1581 219° Southwest 393 452 20,200 -2,640 Descending Los Angeles Center
05:30PM 33.2175 -116.2389 219° Southwest 387 445 17,800 -2,400 Descending Los Angeles Center
05:31PM 33.1336 -116.3208 219° Southwest 390 449 15,300 -2,340 Descending Los Angeles Center
05:32PM 33.0528 -116.3983 219° Southwest 381 438 13,000 -2,100 Descending Los Angeles Center
05:33PM 32.9647 -116.4669 213° Southwest 344 396 11,000 -1,800 Descending Los Angeles Center
05:34PM 32.8856 -116.5142 207° Southwest 317 365 9,300 -1,020 Descending Los Angeles Center
05:36PM 32.8267 -116.5694 218° Southwest 296 341 8,900 -780 Descending Los Angeles Center
05:37PM 32.7881 -116.6494 240° Southwest 284 327 7,700 -1,020 Descending Los Angeles Center
05:38PM 32.7517 -116.7253 240° Southwest 275 316 6,800 -900 Descending Los Angeles Center
05:39PM 32.7147 -116.8003 240° Southwest 237 273 5,900 -900 Descending Los Angeles Center
05:40PM 32.6739 -116.8589 230° Southwest 228 262 5,000 -660 Descending Los Angeles Center
05:41PM 32.6697 -116.9278 266° West 218 251 4,600 -660 Descending Los Angeles Center
05:42PM 32.6864 -116.9953 286° West 213 245 3,700 -1,020 Descending Los Angeles Center
05:43PM 32.7003 -117.0517 286° West 192 221 2,500 -1,260 Descending Los Angeles Center
05:44PM 32.7167 -117.1000 292° West 142 163 1,300 -900 Descending Southern California TRACON
05:45PM 32.7167 -117.1500 270° West 129 148 900 -540 Descending Southern California TRACON
05:46PM 32.7319 -117.1822 299° West 134 154 200 -600 Descending Los Angeles Center
05:48PM 32.7333 -117.1833 281° West  Level FlightAware Approximate
05:55PM 32.7336 -117.1897 281° West  Level Estimated